Time;durP1;ratioP1;P1;durP2;ratioP2;P2;SDS_P1;SDS_P2;PMS_P1;PMS_P2;Temp;Humidity;BMP_temperature;BMP_pressure;BME280_temperature;BME280_humidity;BME280_pressure;Samples;Min_cycle;Max_cycle;Signal;HPM_P1;HPM_P2
2023/01/25 00:00:51;;;;;;;26.03;15.77;;;1.20;99.90;;;;;;5023186;28;20302;-55
2023/01/25 00:03:19;;;;;;;24.43;15.07;;;1.10;99.90;;;;;;5037194;28;20278;-48
2023/01/25 00:05:46;;;;;;;19.80;13.90;;;1.10;99.90;;;;;;5032052;28;20225;-51
2023/01/25 00:08:13;;;;;;;25.53;17.03;;;1.10;99.90;;;;;;5041852;28;20416;-49
2023/01/25 00:10:59;;;;;;;28.23;17.13;;;1.00;99.90;;;;;;5039221;28;20360;-46
2023/01/25 00:13:25;;;;;;;27.27;17.83;;;1.10;99.90;;;;;;5030551;28;20209;-49
2023/01/25 00:15:53;;;;;;;25.27;17.00;;;1.10;99.90;;;;;;5022410;28;20200;-54
2023/01/25 00:18:21;;;;;;;32.33;15.90;;;1.10;99.90;;;;;;5042669;28;20223;-47
2023/01/25 00:20:48;;;;;;;28.03;16.50;;;1.10;99.90;;;;;;5032854;28;20231;-52
2023/01/25 00:23:15;;;;;;;28.43;16.87;;;1.10;99.90;;;;;;5042266;28;20270;-50
2023/01/25 00:25:42;;;;;;;24.90;14.43;;;1.10;99.90;;;;;;5041398;28;20732;-53
2023/01/25 00:28:09;;;;;;;25.40;15.80;;;1.10;99.90;;;;;;5032056;28;22265;-45
2023/01/25 00:30:36;;;;;;;24.13;14.60;;;1.00;99.90;;;;;;5040383;28;20238;-55
2023/01/25 00:33:25;;;;;;;23.33;14.37;;;1.00;99.90;;;;;;5024994;28;20333;-46
2023/01/25 00:35:56;;;;;;;21.23;14.10;;;1.00;99.90;;;;;;5028597;28;20210;-55
2023/01/25 00:38:29;;;;;;;22.03;13.93;;;1.00;99.90;;;;;;5043366;28;20227;-48
2023/01/25 00:40:57;;;;;;;20.97;13.77;;;1.00;99.90;;;;;;5039094;28;20215;-48
2023/01/25 00:43:24;;;;;;;24.67;14.97;;;1.00;99.90;;;;;;5043075;28;20214;-51
2023/01/25 00:45:51;;;;;;;24.67;14.27;;;1.00;99.90;;;;;;5031725;28;20245;-53
2023/01/25 00:48:18;;;;;;;24.23;14.20;;;1.10;99.90;;;;;;5025377;28;20210;-49
2023/01/25 00:50:44;;;;;;;23.03;14.03;;;1.00;99.90;;;;;;5029143;28;20732;-49
2023/01/25 00:53:13;;;;;;;23.70;13.93;;;1.00;99.90;;;;;;5040796;28;20300;-49
2023/01/25 00:55:40;;;;;;;21.97;14.00;;;1.00;99.90;;;;;;5034986;28;20568;-55
2023/01/25 00:58:07;;;;;;;22.63;13.73;;;1.00;99.90;;;;;;5037461;28;20281;-48
2023/01/25 01:00:34;;;;;;;24.20;14.97;;;1.00;99.90;;;;;;5033239;28;20406;-56
2023/01/25 01:03:01;;;;;;;22.37;14.50;;;1.00;99.90;;;;;;5010200;28;20306;-50
2023/01/25 01:05:28;;;;;;;22.60;15.00;;;1.10;99.90;;;;;;5042320;28;20202;-50
2023/01/25 01:07:56;;;;;;;23.90;14.83;;;1.10;99.90;;;;;;5031365;28;20856;-48
2023/01/25 01:10:24;;;;;;;24.67;13.90;;;1.10;99.90;;;;;;5040493;28;20215;-48
2023/01/25 01:12:51;;;;;;;21.50;13.90;;;1.10;99.90;;;;;;5038384;28;20207;-48
2023/01/25 01:15:18;;;;;;;22.10;13.93;;;1.10;99.90;;;;;;5038240;28;20215;-46
2023/01/25 01:17:45;;;;;;;22.50;14.60;;;1.10;99.90;;;;;;5036214;28;20245;-53
2023/01/25 01:20:13;;;;;;;20.40;13.57;;;1.00;99.90;;;;;;5027139;28;20226;-45
2023/01/25 01:22:40;;;;;;;26.43;15.43;;;1.00;99.90;;;;;;5032275;28;20219;-54
2023/01/25 01:25:09;;;;;;;23.10;13.57;;;1.00;99.90;;;;;;5043599;28;20199;-51
2023/01/25 01:27:38;;;;;;;20.77;14.20;;;1.00;99.90;;;;;;5043231;28;20203;-50
2023/01/25 01:30:06;;;;;;;21.23;14.23;;;1.00;99.90;;;;;;5035189;28;20202;-49
2023/01/25 01:32:33;;;;;;;24.73;14.07;;;1.00;99.90;;;;;;5041898;28;20195;-48
2023/01/25 01:35:00;;;;;;;21.43;14.10;;;1.00;99.90;;;;;;5023933;28;22687;-48
2023/01/25 01:37:26;;;;;;;22.30;14.40;;;0.90;99.90;;;;;;5045304;28;20218;-45
2023/01/25 01:39:53;;;;;;;23.83;13.97;;;0.90;99.90;;;;;;5034122;28;20223;-46
2023/01/25 01:42:20;;;;;;;25.20;14.40;;;0.90;99.90;;;;;;5044014;28;20228;-50
2023/01/25 01:44:54;;;;;;;22.27;14.47;;;0.80;99.90;;;;;;5040888;28;20260;-48
2023/01/25 01:47:28;;;;;;;26.00;14.67;;;0.80;99.90;;;;;;5037534;28;20207;-47
2023/01/25 01:50:04;;;;;;;20.40;14.50;;;0.80;99.90;;;;;;5024680;28;20222;-47
2023/01/25 01:52:36;;;;;;;21.07;14.30;;;0.80;99.90;;;;;;5035588;28;20229;-53
2023/01/25 01:55:07;;;;;;;22.63;14.17;;;0.80;99.90;;;;;;5037353;28;20199;-51
2023/01/25 01:57:39;;;;;;;24.07;14.17;;;0.80;99.90;;;;;;5037235;28;20268;-52
2023/01/25 02:00:13;;;;;;;25.70;15.97;;;0.90;99.90;;;;;;5042187;28;20307;-53
2023/01/25 02:02:43;;;;;;;24.70;14.57;;;0.90;99.90;;;;;;5031179;28;20285;-50
2023/01/25 02:05:16;;;;;;;28.07;15.67;;;0.90;99.90;;;;;;5027263;28;20200;-47
2023/01/25 02:07:46;;;;;;;21.67;13.90;;;0.80;99.90;;;;;;5035774;28;20207;-55
2023/01/25 02:10:14;;;;;;;27.60;15.10;;;0.80;99.90;;;;;;5041862;28;20230;-46
2023/01/25 02:12:44;;;;;;;23.93;14.83;;;0.80;99.90;;;;;;5040841;28;20276;-53
2023/01/25 02:15:12;;;;;;;25.23;15.03;;;0.80;99.90;;;;;;5043058;28;20551;-49
2023/01/25 02:17:41;;;;;;;23.53;15.00;;;0.80;99.90;;;;;;5035035;28;20662;-53
2023/01/25 02:20:23;;;;;;;25.13;14.07;;;0.70;99.90;;;;;;5042548;28;20231;-48
2023/01/25 02:22:58;;;;;;;27.30;15.20;;;0.70;99.90;;;;;;5024646;28;20805;-50
2023/01/25 02:25:27;;;;;;;25.33;14.40;;;0.70;99.90;;;;;;5035315;28;20208;-52
2023/01/25 02:27:59;;;;;;;24.20;13.30;;;0.70;99.90;;;;;;5041127;28;20285;-46
2023/01/25 02:30:27;;;;;;;22.97;14.80;;;0.60;99.90;;;;;;5044056;28;20607;-45
2023/01/25 02:32:53;;;;;;;24.13;14.10;;;0.60;99.90;;;;;;5026359;28;20918;-47
2023/01/25 02:35:22;;;;;;;24.87;14.73;;;0.60;99.90;;;;;;5054681;28;20200;-47
2023/01/25 02:37:50;;;;;;;24.03;14.13;;;0.60;99.90;;;;;;5022729;28;20211;-52
2023/01/25 02:40:17;;;;;;;21.97;13.67;;;0.60;99.90;;;;;;5033105;28;20245;-49
2023/01/25 02:42:46;;;;;;;24.73;15.10;;;0.60;99.90;;;;;;5039975;28;20211;-54
2023/01/25 02:45:17;;;;;;;20.87;13.23;;;0.60;99.90;;;;;;5043262;28;20230;-45
2023/01/25 02:47:47;;;;;;;21.27;14.07;;;0.50;99.90;;;;;;5034808;28;20207;-54
2023/01/25 02:50:14;;;;;;;21.27;12.67;;;0.50;99.90;;;;;;5039710;28;20225;-51
2023/01/25 02:52:41;;;;;;;25.27;13.20;;;0.50;99.90;;;;;;5023671;28;20272;-52
2023/01/25 02:55:10;;;;;;;18.57;12.60;;;0.40;99.90;;;;;;5034996;28;22728;-47
2023/01/25 02:57:38;;;;;;;21.73;12.63;;;0.40;99.90;;;;;;5041116;28;20303;-52
2023/01/25 03:00:08;;;;;;;19.30;12.67;;;0.40;99.90;;;;;;5042640;28;20214;-47
2023/01/25 03:02:35;;;;;;;18.73;11.97;;;0.40;99.90;;;;;;5040630;28;20304;-52
2023/01/25 03:05:02;;;;;;;20.37;12.57;;;0.30;99.90;;;;;;5033109;28;20235;-50
2023/01/25 03:07:29;;;;;;;22.57;13.20;;;0.30;99.90;;;;;;5042982;28;20237;-53
2023/01/25 03:09:55;;;;;;;17.47;11.80;;;0.30;99.90;;;;;;5015612;28;20592;-47
2023/01/25 03:12:23;;;;;;;20.53;11.87;;;0.30;99.90;;;;;;5040812;28;20688;-45
2023/01/25 03:14:53;;;;;;;21.20;12.70;;;0.30;99.90;;;;;;5038963;28;20229;-47
2023/01/25 03:17:21;;;;;;;21.23;11.77;;;0.30;99.90;;;;;;5042724;28;20317;-47
2023/01/25 03:19:50;;;;;;;17.57;11.67;;;0.30;99.90;;;;;;5031631;28;20238;-49
2023/01/25 03:22:17;;;;;;;18.17;11.40;;;0.20;99.90;;;;;;5040277;28;20285;-45
2023/01/25 03:24:45;;;;;;;18.20;11.27;;;0.20;99.90;;;;;;5022100;28;20705;-52
2023/01/25 03:27:13;;;;;;;21.23;11.50;;;0.20;99.90;;;;;;5034324;28;20212;-46
2023/01/25 03:29:48;;;;;;;16.73;10.70;;;0.10;99.90;;;;;;5038517;28;20208;-52
2023/01/25 03:32:22;;;;;;;22.23;11.93;;;0.10;99.90;;;;;;5036203;28;20290;-45
2023/01/25 03:34:49;;;;;;;20.90;11.80;;;0.10;99.90;;;;;;5038549;28;20837;-48
2023/01/25 03:37:18;;;;;;;18.87;11.87;;;0.10;99.90;;;;;;5022337;28;20226;-47
2023/01/25 03:39:45;;;;;;;16.67;9.77;;;0.10;99.90;;;;;;5040044;28;20218;-48
2023/01/25 03:42:12;;;;;;;19.73;10.37;;;0.10;99.90;;;;;;5031585;28;20231;-53
2023/01/25 03:44:39;;;;;;;19.30;11.10;;;0.00;99.90;;;;;;5043535;28;20237;-50
2023/01/25 03:47:06;;;;;;;19.90;11.53;;;0.00;99.90;;;;;;5040198;28;20206;-50
2023/01/25 03:49:34;;;;;;;19.50;11.40;;;0.00;99.90;;;;;;5041880;28;20194;-51
2023/01/25 03:52:02;;;;;;;21.70;10.83;;;0.00;99.90;;;;;;5032770;28;20258;-52
2023/01/25 03:54:35;;;;;;;19.27;10.83;;;0.00;99.90;;;;;;5024086;28;20217;-48
2023/01/25 03:57:03;;;;;;;17.30;10.63;;;0.10;99.90;;;;;;5033314;28;20206;-52
2023/01/25 03:59:33;;;;;;;22.43;11.77;;;0.10;99.90;;;;;;5040262;28;20215;-45
2023/01/25 04:02:01;;;;;;;18.60;11.67;;;0.10;99.90;;;;;;5036884;28;20731;-52
2023/01/25 04:04:28;;;;;;;23.87;12.87;;;0.10;99.90;;;;;;5032777;28;20208;-49
2023/01/25 04:06:57;;;;;;;20.37;11.93;;;0.10;99.90;;;;;;5022471;28;20680;-52
2023/01/25 04:09:25;;;;;;;20.40;11.70;;;0.20;99.90;;;;;;5033025;28;20308;-46
2023/01/25 04:11:55;;;;;;;19.40;11.70;;;0.10;99.90;;;;;;5017431;28;20254;-49
2023/01/25 04:14:22;;;;;;;22.67;12.13;;;0.10;99.90;;;;;;5039493;28;20191;-46
2023/01/25 04:17:04;;;;;;;20.67;12.10;;;0.10;99.90;;;;;;5041256;28;20286;-53
2023/01/25 04:19:49;;;;;;;22.10;11.47;;;0.10;99.90;;;;;;5033530;28;20230;-45
2023/01/25 04:22:20;;;;;;;21.27;12.17;;;0.00;99.90;;;;;;5023105;28;20831;-46
2023/01/25 04:24:49;;;;;;;20.53;11.30;;;0.00;99.90;;;;;;5022676;28;20218;-48
2023/01/25 04:27:16;;;;;;;21.80;10.90;;;0.00;99.90;;;;;;5003789;28;20353;-50
2023/01/25 04:29:53;;;;;;;21.87;10.63;;;0.00;99.90;;;;;;5035971;28;20197;-48
2023/01/25 04:32:21;;;;;;;24.37;12.20;;;-0.10;99.90;;;;;;5032573;28;20944;-49
2023/01/25 04:34:48;;;;;;;29.97;13.10;;;-0.10;99.90;;;;;;5027828;28;20200;-50
2023/01/25 04:37:20;;;;;;;24.17;11.73;;;-0.10;99.90;;;;;;5031861;28;20972;-49
2023/01/25 04:39:58;;;;;;;21.90;12.17;;;-0.20;99.90;;;;;;5034322;28;20304;-50
2023/01/25 04:42:28;;;;;;;27.43;13.27;;;-0.20;99.90;;;;;;5022598;28;20228;-44
2023/01/25 04:44:56;;;;;;;24.30;12.67;;;-0.20;99.90;;;;;;5025973;28;20207;-47
2023/01/25 04:47:24;;;;;;;26.73;13.03;;;-0.10;99.90;;;;;;5038281;28;20198;-49
2023/01/25 04:49:50;;;;;;;31.07;13.30;;;-0.10;99.90;;;;;;5044186;28;20550;-47
2023/01/25 04:52:21;;;;;;;23.57;12.73;;;0.00;99.90;;;;;;5035562;28;20223;-48
2023/01/25 04:54:48;;;;;;;26.17;12.60;;;0.00;99.90;;;;;;5042879;28;20213;-49
2023/01/25 04:57:16;;;;;;;24.73;12.40;;;0.00;99.90;;;;;;5017946;28;22656;-50
2023/01/25 04:59:48;;;;;;;26.67;13.33;;;-0.10;99.90;;;;;;5033788;28;20283;-51
2023/01/25 05:02:15;;;;;;;25.47;14.07;;;-0.10;99.90;;;;;;5041163;28;20626;-51
2023/01/25 05:04:42;;;;;;;25.40;13.47;;;-0.10;99.90;;;;;;5046654;28;20203;-51
2023/01/25 05:07:09;;;;;;;23.37;12.53;;;-0.20;99.90;;;;;;5033300;28;20198;-50
2023/01/25 05:09:37;;;;;;;27.40;14.17;;;-0.20;99.90;;;;;;5039618;28;20206;-45
2023/01/25 05:12:10;;;;;;;26.87;13.70;;;-0.20;99.90;;;;;;5026450;28;20311;-53
2023/01/25 05:14:50;;;;;;;28.40;14.33;;;-0.10;99.90;;;;;;5027323;28;20219;-48
2023/01/25 05:17:17;;;;;;;25.37;12.40;;;-0.10;99.90;;;;;;5032652;28;20209;-45
2023/01/25 05:19:45;;;;;;;23.57;13.40;;;-0.20;99.90;;;;;;5033273;28;20235;-44
2023/01/25 05:22:16;;;;;;;27.13;14.00;;;-0.20;99.90;;;;;;5031837;28;20232;-47
2023/01/25 05:24:49;;;;;;;23.23;12.73;;;-0.20;99.90;;;;;;5026481;28;20323;-48
2023/01/25 05:27:18;;;;;;;28.67;15.00;;;-0.20;99.90;;;;;;5031338;28;20233;-52
2023/01/25 05:29:55;;;;;;;31.60;14.87;;;-0.20;99.90;;;;;;5024499;28;20205;-50
2023/01/25 05:32:28;;;;;;;26.97;14.10;;;-0.20;99.90;;;;;;5035020;28;20204;-54
2023/01/25 05:34:56;;;;;;;25.63;13.90;;;-0.20;99.90;;;;;;5034359;28;20212;-50
2023/01/25 05:37:24;;;;;;;33.67;16.30;;;-0.20;99.90;;;;;;5030095;28;20285;-49
2023/01/25 05:39:59;;;;;;;36.13;15.63;;;-0.30;99.90;;;;;;5035309;28;20224;-45
2023/01/25 05:42:26;;;;;;;31.83;13.57;;;-0.30;99.90;;;;;;5035064;28;20678;-52
2023/01/25 05:44:54;;;;;;;23.33;12.93;;;-0.30;99.90;;;;;;5021212;28;22227;-48
2023/01/25 05:47:21;;;;;;;18.17;11.60;;;-0.40;99.90;;;;;;5034240;28;20301;-53
2023/01/25 05:49:48;;;;;;;16.20;11.73;;;-0.40;99.90;;;;;;5038354;28;20191;-52
2023/01/25 05:52:31;;;;;;;18.80;11.80;;;-0.50;99.90;;;;;;5040643;28;20662;-53
2023/01/25 05:54:59;;;;;;;20.07;12.77;;;-0.50;99.90;;;;;;5035039;28;20213;-46
2023/01/25 05:57:27;;;;;;;22.07;13.33;;;-0.50;99.90;;;;;;5029277;28;20213;-49
2023/01/25 05:59:54;;;;;;;21.23;13.27;;;-0.50;99.90;;;;;;5011787;28;21312;-50
2023/01/25 06:02:21;;;;;;;21.83;14.53;;;-0.40;99.90;;;;;;5025694;28;20234;-50
2023/01/25 06:04:48;;;;;;;23.77;13.30;;;-0.40;99.90;;;;;;5036001;28;20200;-48
2023/01/25 06:07:15;;;;;;;20.40;12.80;;;-0.40;99.90;;;;;;5026374;28;20199;-48
2023/01/25 06:09:42;;;;;;;20.77;13.70;;;-0.40;99.90;;;;;;5027135;28;20208;-51
2023/01/25 06:12:10;;;;;;;25.77;14.10;;;-0.50;99.90;;;;;;5030624;28;20228;-52
2023/01/25 06:14:37;;;;;;;25.27;14.00;;;-0.40;99.90;;;;;;5025024;28;20205;-49
2023/01/25 06:17:04;;;;;;;23.10;13.73;;;-0.50;99.90;;;;;;5011230;28;20309;-48
2023/01/25 06:19:56;;;;;;;21.83;14.13;;;-0.50;99.90;;;;;;5033689;28;20230;-50
2023/01/25 06:22:29;;;;;;;20.90;12.60;;;-0.50;99.90;;;;;;5038552;28;20664;-51
2023/01/25 06:24:56;;;;;;;21.50;14.10;;;-0.50;99.90;;;;;;5028444;28;20276;-47
2023/01/25 06:27:24;;;;;;;32.03;15.80;;;-0.50;99.90;;;;;;5037889;28;20206;-49
2023/01/25 06:29:51;;;;;;;30.10;14.97;;;-0.50;99.90;;;;;;5025479;28;20801;-45
2023/01/25 06:32:17;;;;;;;36.13;16.70;;;-0.40;99.90;;;;;;5018999;28;20264;-47
2023/01/25 06:34:45;;;;;;;29.43;15.03;;;-0.40;99.90;;;;;;5023927;28;20287;-46
2023/01/25 06:37:16;;;;;;;28.73;14.93;;;-0.40;99.90;;;;;;5032646;28;20196;-44
2023/01/25 06:39:46;;;;;;;22.43;14.33;;;-0.40;99.90;;;;;;5029571;28;20313;-48
2023/01/25 06:42:13;;;;;;;24.37;14.53;;;-0.40;99.90;;;;;;5037425;28;20226;-48
2023/01/25 06:44:41;;;;;;;26.20;14.63;;;-0.40;99.90;;;;;;5033119;28;20206;-51
2023/01/25 06:47:08;;;;;;;25.60;14.47;;;-0.30;99.90;;;;;;5013478;28;20214;-51
2023/01/25 06:49:35;;;;;;;21.27;13.63;;;-0.30;99.90;;;;;;5025089;28;20202;-52
2023/01/25 06:52:02;;;;;;;21.17;13.07;;;-0.30;99.90;;;;;;5031937;28;20230;-44
2023/01/25 06:54:28;;;;;;;23.40;13.77;;;-0.30;99.90;;;;;;5028792;28;20202;-43
2023/01/25 06:56:55;;;;;;;29.87;14.50;;;-0.30;99.90;;;;;;5035419;28;20196;-48
2023/01/25 06:59:23;;;;;;;25.60;13.90;;;-0.30;99.90;;;;;;5025173;28;20234;-46
2023/01/25 07:01:51;;;;;;;21.07;13.23;;;-0.30;99.90;;;;;;5020321;28;20226;-55
2023/01/25 07:04:21;;;;;;;20.80;12.40;;;-0.30;99.90;;;;;;5033896;28;20569;-45
2023/01/25 07:06:48;;;;;;;18.27;11.73;;;-0.30;99.90;;;;;;5041225;28;20227;-53
2023/01/25 07:09:15;;;;;;;21.30;11.70;;;-0.30;99.90;;;;;;5030980;28;20640;-42
2023/01/25 07:11:41;;;;;;;20.93;12.30;;;-0.40;99.90;;;;;;5030984;28;20227;-54
2023/01/25 07:14:09;;;;;;;18.43;12.07;;;-0.40;99.90;;;;;;5042809;28;20204;-47
2023/01/25 07:16:38;;;;;;;18.20;12.07;;;-0.40;99.90;;;;;;5020656;28;20239;-48
2023/01/25 07:19:10;;;;;;;25.37;12.63;;;-0.40;99.90;;;;;;5014370;28;20211;-48
2023/01/25 07:21:37;;;;;;;18.07;11.33;;;-0.40;99.90;;;;;;5023317;28;20626;-54
2023/01/25 07:24:05;;;;;;;24.20;13.77;;;-0.40;99.90;;;;;;5038216;28;20201;-49
2023/01/25 07:26:32;;;;;;;19.87;12.57;;;-0.40;99.90;;;;;;5028820;28;20208;-48
2023/01/25 07:29:00;;;;;;;19.83;11.23;;;-0.40;99.90;;;;;;5031130;28;20216;-49
2023/01/25 07:31:27;;;;;;;27.17;13.30;;;-0.40;99.90;;;;;;5028863;28;20221;-49
2023/01/25 07:33:55;;;;;;;19.40;11.93;;;-0.30;99.90;;;;;;5023466;28;20724;-50
2023/01/25 07:36:24;;;;;;;28.73;13.60;;;-0.30;99.90;;;;;;5030326;28;20232;-53
2023/01/25 07:38:53;;;;;;;24.00;13.17;;;-0.30;99.90;;;;;;5039221;28;20669;-44
2023/01/25 07:41:20;;;;;;;22.03;12.87;;;-0.30;99.90;;;;;;5034995;28;20229;-49
2023/01/25 07:43:46;;;;;;;22.10;13.63;;;-0.30;99.90;;;;;;5034846;28;20209;-46
2023/01/25 07:46:19;;;;;;;18.37;11.83;;;-0.20;99.90;;;;;;5034484;28;20299;-51
2023/01/25 07:48:48;;;;;;;19.27;12.27;;;-0.20;99.90;;;;;;5024244;28;20355;-44
2023/01/25 07:51:22;;;;;;;19.20;11.87;;;-0.20;99.90;;;;;;5028195;28;20222;-52
2023/01/25 07:53:52;;;;;;;18.70;12.40;;;-0.20;99.90;;;;;;5040320;28;20203;-48
2023/01/25 07:56:20;;;;;;;18.97;11.47;;;-0.20;99.90;;;;;;5036581;28;20196;-51
2023/01/25 07:58:47;;;;;;;17.23;11.40;;;-0.20;99.90;;;;;;5024879;28;20209;-47
2023/01/25 08:01:16;;;;;;;19.63;12.13;;;-0.20;99.90;;;;;;5031801;28;20918;-50
2023/01/25 08:03:43;;;;;;;19.13;11.97;;;-0.30;99.90;;;;;;5031709;28;20665;-44
2023/01/25 08:06:10;;;;;;;17.03;11.97;;;-0.30;99.90;;;;;;5019870;28;20662;-48
2023/01/25 08:08:40;;;;;;;18.20;12.13;;;-0.30;99.90;;;;;;5034271;28;20190;-52
2023/01/25 08:11:12;;;;;;;17.30;12.30;;;-0.30;99.90;;;;;;5026617;28;20217;-47
2023/01/25 08:13:39;;;;;;;26.10;14.60;;;-0.20;99.90;;;;;;5015586;28;20211;-49
2023/01/25 08:16:06;;;;;;;24.17;13.23;;;-0.30;99.90;;;;;;5038055;28;20657;-50
2023/01/25 08:18:33;;;;;;;20.13;12.03;;;-0.30;99.90;;;;;;5024817;28;20277;-47
2023/01/25 08:21:00;;;;;;;23.40;13.73;;;-0.30;99.90;;;;;;5022153;28;20222;-51
2023/01/25 08:26:09;;;;;;;22.17;13.83;;;-0.30;99.90;;;;;;5073454;27;20553;-52
2023/01/25 08:28:36;;;;;;;24.93;13.67;;;-0.30;99.90;;;;;;5049841;28;20198;-47
2023/01/25 08:31:07;;;;;;;21.00;13.27;;;-0.30;99.90;;;;;;5043642;28;20233;-48
2023/01/25 08:33:33;;;;;;;28.13;14.97;;;-0.30;99.90;;;;;;5028948;28;20214;-46
2023/01/25 08:36:00;;;;;;;25.07;13.63;;;-0.30;99.90;;;;;;5022240;28;20701;-47
2023/01/25 08:38:27;;;;;;;22.37;12.43;;;-0.20;99.90;;;;;;5029654;28;20288;-44
2023/01/25 08:40:54;;;;;;;25.73;14.53;;;-0.20;99.90;;;;;;5038709;28;20244;-48
2023/01/25 08:43:22;;;;;;;27.57;14.63;;;-0.20;99.90;;;;;;5033763;28;20201;-45
2023/01/25 08:45:56;;;;;;;24.43;13.90;;;-0.20;99.90;;;;;;5031029;28;20229;-48
2023/01/25 08:48:23;;;;;;;19.67;12.50;;;-0.10;99.90;;;;;;5037555;28;20317;-45
2023/01/25 08:50:50;;;;;;;22.87;13.60;;;-0.20;99.90;;;;;;5016354;28;20223;-45
2023/01/25 08:53:17;;;;;;;21.33;13.17;;;-0.20;99.90;;;;;;5032274;28;20206;-45
2023/01/25 08:55:44;;;;;;;22.17;13.57;;;-0.10;99.90;;;;;;5037443;28;20187;-51
2023/01/25 08:58:12;;;;;;;21.50;12.97;;;-0.10;99.90;;;;;;5039346;28;20194;-50
2023/01/25 09:00:41;;;;;;;21.60;13.60;;;-0.10;99.90;;;;;;5024777;28;21442;-52
2023/01/25 09:03:09;;;;;;;21.97;13.10;;;-0.10;99.90;;;;;;5037448;28;20224;-49
2023/01/25 09:05:36;;;;;;;23.80;13.37;;;-0.10;99.90;;;;;;5030481;28;20259;-49
2023/01/25 09:08:04;;;;;;;21.10;13.17;;;0.00;99.90;;;;;;5019927;28;20219;-54
2023/01/25 09:10:31;;;;;;;18.43;13.20;;;0.00;99.90;;;;;;5034028;28;20293;-50
2023/01/25 09:12:58;;;;;;;22.40;13.27;;;0.00;99.90;;;;;;5037689;28;20661;-51
2023/01/25 09:15:25;;;;;;;20.03;13.23;;;-0.10;99.90;;;;;;5029650;28;20288;-45
2023/01/25 09:17:53;;;;;;;21.43;12.83;;;0.00;99.90;;;;;;5030230;28;20612;-47
2023/01/25 09:20:21;;;;;;;24.23;13.37;;;0.00;99.90;;;;;;5030437;28;20241;-42
2023/01/25 09:22:47;;;;;;;19.90;13.67;;;0.00;99.90;;;;;;5020454;28;20280;-48
2023/01/25 09:25:14;;;;;;;20.53;14.23;;;0.00;99.90;;;;;;5030659;28;20219;-45
2023/01/25 09:27:41;;;;;;;22.00;13.73;;;-0.10;99.90;;;;;;5036525;28;20184;-50
2023/01/25 09:30:10;;;;;;;20.13;13.13;;;-0.10;99.90;;;;;;5038681;28;20636;-49
2023/01/25 09:32:38;;;;;;;27.23;14.27;;;-0.10;99.90;;;;;;5019919;28;20198;-48
2023/01/25 09:35:06;;;;;;;20.87;13.60;;;-0.10;99.90;;;;;;5034580;28;20197;-52
2023/01/25 09:37:33;;;;;;;23.47;13.63;;;-0.10;99.90;;;;;;4998398;28;20274;-47
2023/01/25 09:40:00;;;;;;;23.97;13.73;;;-0.10;99.90;;;;;;5018708;28;20220;-52
2023/01/25 09:42:56;;;;;;;20.37;13.07;;;-0.10;99.90;;;;;;5021958;28;20231;-42
2023/01/25 09:45:31;;;;;;;21.27;13.83;;;-0.10;99.90;;;;;;5014616;28;20227;-48
2023/01/25 09:48:04;;;;;;;22.80;13.10;;;0.00;99.90;;;;;;5014890;28;20197;-45
2023/01/25 09:50:37;;;;;;;23.20;13.90;;;-0.10;99.90;;;;;;5015488;28;20217;-53
2023/01/25 09:53:19;;;;;;;24.10;13.70;;;-0.10;99.90;;;;;;5008121;28;20210;-50
2023/01/25 09:55:52;;;;;;;25.57;13.83;;;-0.10;99.90;;;;;;5021019;28;20304;-46
2023/01/25 09:58:22;;;;;;;24.67;14.90;;;-0.10;99.90;;;;;;5022413;28;20207;-46
2023/01/25 10:00:52;;;;;;;26.13;14.07;;;-0.10;99.90;;;;;;5022928;28;20229;-51
2023/01/25 10:03:24;;;;;;;29.13;14.77;;;-0.10;99.90;;;;;;5016508;28;20211;-44
2023/01/25 10:05:54;;;;;;;25.67;15.27;;;-0.10;99.90;;;;;;5016468;28;20222;-52
2023/01/25 10:08:30;;;;;;;23.70;14.47;;;-0.10;99.90;;;;;;5006941;28;20218;-44
2023/01/25 10:11:04;;;;;;;23.47;14.13;;;-0.20;99.90;;;;;;5017429;28;20231;-50
2023/01/25 10:13:31;;;;;;;27.23;15.83;;;-0.20;99.90;;;;;;5020981;28;20310;-49
2023/01/25 10:16:03;;;;;;;24.20;14.70;;;-0.20;99.90;;;;;;5024575;28;20265;-51
2023/01/25 10:18:36;;;;;;;24.53;15.23;;;-0.30;99.90;;;;;;5015810;28;20202;-46
2023/01/25 10:21:10;;;;;;;29.10;16.60;;;-0.30;99.90;;;;;;5024347;28;20233;-53
2023/01/25 10:23:52;;;;;;;26.37;14.63;;;-0.30;99.90;;;;;;5000315;28;20242;-47
2023/01/25 10:26:25;;;;;;;30.50;17.73;;;-0.30;99.90;;;;;;5016272;28;20277;-43
2023/01/25 10:28:59;;;;;;;33.90;19.00;;;-0.30;99.90;;;;;;5023255;28;20191;-51
2023/01/25 10:31:33;;;;;;;31.93;17.37;;;-0.20;99.90;;;;;;5021822;28;20234;-46
2023/01/25 10:34:02;;;;;;;33.80;18.87;;;-0.20;99.90;;;;;;5017415;28;20275;-51
2023/01/25 10:36:31;;;;;;;30.20;17.20;;;-0.10;99.90;;;;;;5019467;28;20190;-48
2023/01/25 10:39:00;;;;;;;33.37;19.03;;;-0.20;99.90;;;;;;5002030;28;20217;-47
2023/01/25 10:41:36;;;;;;;30.97;18.53;;;-0.20;99.90;;;;;;5014021;28;20270;-45
2023/01/25 10:44:23;;;;;;;38.73;19.80;;;-0.20;99.90;;;;;;5023356;28;20230;-50
2023/01/25 10:46:56;;;;;;;44.33;21.37;;;-0.20;99.90;;;;;;5022002;28;20254;-48
2023/01/25 10:49:27;;;;;;;36.13;20.60;;;-0.20;99.90;;;;;;5016392;28;20203;-48
2023/01/25 10:51:56;;;;;;;36.53;19.53;;;-0.20;99.90;;;;;;5023113;28;20267;-51
2023/01/25 10:54:23;;;;;;;38.93;20.63;;;-0.10;99.90;;;;;;5003793;28;20265;-44
2023/01/25 10:56:50;;;;;;;39.80;22.13;;;-0.10;99.90;;;;;;5017484;28;20212;-52
2023/01/25 10:59:24;;;;;;;38.53;20.63;;;-0.10;99.90;;;;;;5018339;28;20276;-47
2023/01/25 11:01:51;;;;;;;41.27;21.93;;;-0.10;99.90;;;;;;5022639;28;20255;-53
2023/01/25 11:04:30;;;;;;;39.73;22.37;;;-0.10;99.90;;;;;;5021041;28;20202;-46
2023/01/25 11:07:01;;;;;;;45.57;21.63;;;-0.10;99.90;;;;;;5018207;28;20207;-55
2023/01/25 11:09:33;;;;;;;41.73;22.47;;;-0.10;99.90;;;;;;4998655;28;20202;-44
2023/01/25 11:12:01;;;;;;;38.30;21.17;;;-0.10;99.90;;;;;;5015604;28;20397;-51
2023/01/25 11:14:30;;;;;;;41.97;23.40;;;-0.10;99.90;;;;;;5019081;28;20207;-44
2023/01/25 11:16:59;;;;;;;40.23;21.87;;;0.00;99.90;;;;;;5022273;28;20281;-49
2023/01/25 11:19:29;;;;;;;47.13;24.17;;;0.00;99.90;;;;;;5020100;28;20283;-44
2023/01/25 11:21:57;;;;;;;46.40;24.67;;;0.00;99.90;;;;;;5016572;28;20247;-52
2023/01/25 11:24:28;;;;;;;40.70;21.90;;;0.00;99.90;;;;;;5005826;28;20290;-43
2023/01/25 11:27:19;;;;;;;41.23;22.60;;;0.00;99.90;;;;;;5011162;28;20707;-50
2023/01/25 11:30:05;;;;;;;45.87;23.40;;;0.00;99.90;;;;;;5020871;28;20253;-47
2023/01/25 11:32:33;;;;;;;40.27;21.47;;;0.00;99.90;;;;;;5018520;28;20935;-54
2023/01/25 11:35:00;;;;;;;39.77;20.77;;;0.10;99.90;;;;;;5022165;28;20594;-52
2023/01/25 11:37:40;;;;;;;37.17;20.97;;;0.10;99.90;;;;;;5013242;28;20207;-44
2023/01/25 11:40:15;;;;;;;47.97;21.87;;;0.10;99.90;;;;;;5002996;28;20242;-46
2023/01/25 11:42:57;;;;;;;33.70;18.77;;;0.10;99.90;;;;;;5014155;28;20223;-52
2023/01/25 11:46:03;;;;;;;37.97;20.63;;;0.00;99.90;;;;;;5002832;28;20219;-50
2023/01/25 11:48:50;;;;;;;53.37;24.50;;;0.00;99.90;;;;;;5004658;28;20243;-53
2023/01/25 11:51:23;;;;;;;50.30;22.77;;;0.00;99.90;;;;;;5011883;28;20237;-45
2023/01/25 11:54:04;;;;;;;48.77;23.20;;;0.00;99.90;;;;;;5015391;28;20582;-52
2023/01/25 11:56:46;;;;;;;38.40;19.77;;;0.10;99.90;;;;;;4996485;28;20289;-51
2023/01/25 11:59:31;;;;;;;40.20;24.57;;;0.00;99.90;;;;;;5012321;28;20818;-46
2023/01/25 12:02:14;;;;;;;49.07;26.27;;;0.00;99.90;;;;;;5022038;28;20246;-53
2023/01/25 12:04:56;;;;;;;55.17;32.60;;;0.00;99.90;;;;;;5018399;28;20290;-52
2023/01/25 12:07:33;;;;;;;62.57;30.60;;;0.10;99.90;;;;;;5010298;28;20224;-48
2023/01/25 12:10:15;;;;;;;36.30;21.00;;;0.00;99.90;;;;;;5014202;28;20273;-45
2023/01/25 12:12:49;;;;;;;36.93;21.70;;;0.10;99.90;;;;;;5003727;28;20257;-49
2023/01/25 12:15:45;;;;;;;37.47;20.90;;;0.00;99.90;;;;;;5011008;28;20216;-45
2023/01/25 12:18:36;;;;;;;38.27;20.47;;;0.00;99.90;;;;;;5015601;28;20269;-47
2023/01/25 12:21:10;;;;;;;37.83;19.73;;;0.00;99.90;;;;;;5016275;28;20260;-51
2023/01/25 12:23:51;;;;;;;42.37;19.27;;;0.00;99.90;;;;;;5018489;28;20191;-48
2023/01/25 12:26:25;;;;;;;37.27;20.27;;;0.00;99.90;;;;;;5013337;28;20241;-45
2023/01/25 12:29:03;;;;;;;36.67;20.27;;;0.00;99.90;;;;;;5005609;28;20232;-48
2023/01/25 12:31:37;;;;;;;39.13;20.93;;;0.00;99.90;;;;;;5012323;28;20288;-49
2023/01/25 12:34:11;;;;;;;37.50;20.67;;;0.00;99.90;;;;;;5021842;28;20767;-47
2023/01/25 12:36:43;;;;;;;37.63;20.50;;;0.00;99.90;;;;;;5012161;28;20205;-43
2023/01/25 12:39:13;;;;;;;37.20;20.37;;;0.00;99.90;;;;;;5018741;28;20285;-45
2023/01/25 12:41:45;;;;;;;35.07;19.27;;;0.00;99.90;;;;;;5013423;28;20228;-46
2023/01/25 12:44:19;;;;;;;36.20;19.27;;;0.00;99.90;;;;;;5002548;28;20212;-44
2023/01/25 12:46:52;;;;;;;31.90;19.13;;;0.00;99.90;;;;;;5014541;28;20704;-52
2023/01/25 12:49:31;;;;;;;34.83;18.20;;;0.00;99.90;;;;;;5018334;28;20528;-44
2023/01/25 12:52:03;;;;;;;34.30;19.37;;;0.00;99.90;;;;;;5016540;28;20234;-48